createdAt,value
2019-04-20T00:00:05.941Z,1029.09
2019-04-20T00:01:03.416Z,1029.15
2019-04-20T00:02:09.545Z,1029.14
2019-04-20T00:03:03.398Z,1029.10
2019-04-20T00:04:03.197Z,1029.11
2019-04-20T00:05:03.431Z,1029.13
2019-04-20T00:06:03.522Z,1029.09
2019-04-20T00:07:03.936Z,1029.07
2019-04-20T00:08:09.040Z,1029.05
2019-04-20T00:09:07.397Z,1029.06
2019-04-20T00:10:10.131Z,1029.07
2019-04-20T00:11:10.728Z,1029.09
2019-04-20T00:12:10.836Z,1029.10
2019-04-20T00:13:18.270Z,1029.05
2019-04-20T00:14:08.952Z,1029.05
2019-04-20T00:15:03.002Z,1029.03
2019-04-20T00:16:02.519Z,1029.03
2019-04-20T00:17:03.038Z,1028.97
2019-04-20T00:18:05.387Z,1028.96
2019-04-20T00:19:05.237Z,1028.96
2019-04-20T00:20:09.497Z,1028.92
2019-04-20T00:21:08.140Z,1028.92
2019-04-20T00:22:06.961Z,1028.89
2019-04-20T00:23:02.287Z,1028.90
2019-04-20T00:24:10.107Z,1028.89
2019-04-20T00:25:06.599Z,1028.84
2019-04-20T00:26:11.094Z,1028.87
2019-04-20T00:27:26.077Z,1028.86
2019-04-20T00:28:22.468Z,1028.83
2019-04-20T00:29:22.697Z,1028.82
2019-04-20T00:30:25.073Z,1028.84
2019-04-20T00:31:22.469Z,1028.83
2019-04-20T00:32:12.592Z,1028.82
2019-04-20T00:33:14.652Z,1028.82
2019-04-20T00:34:09.132Z,1028.82
2019-04-20T00:35:02.259Z,1028.80
2019-04-20T00:36:03.157Z,1028.80
2019-04-20T00:37:02.319Z,1028.79
2019-04-20T00:38:01.809Z,1028.78
2019-04-20T00:39:06.421Z,1028.79
2019-04-20T00:40:01.770Z,1028.79
2019-04-20T00:41:05.592Z,1028.80
2019-04-20T00:42:06.698Z,1028.76
2019-04-20T00:43:02.942Z,1028.80
2019-04-20T00:44:06.858Z,1028.76
2019-04-20T00:45:10.072Z,1028.75
2019-04-20T00:46:08.284Z,1028.72
2019-04-20T00:48:28.435Z,1028.71
2019-04-20T00:49:31.095Z,1028.70
2019-04-20T00:50:36.732Z,1028.70
2019-04-20T00:51:32.682Z,1028.65
2019-04-20T00:52:34.818Z,1028.68
2019-04-20T00:53:22.661Z,1028.65
2019-04-20T00:54:16.086Z,1028.64
2019-04-20T00:55:16.992Z,1028.66
2019-04-20T00:56:16.215Z,1028.63
2019-04-20T00:57:24.436Z,1028.65
2019-04-20T00:58:25.569Z,1028.62
2019-04-20T00:59:27.639Z,1028.65
2019-04-20T01:00:31.366Z,1028.64
2019-04-20T01:01:37.792Z,1028.63
2019-04-20T01:02:32.656Z,1028.62
2019-04-20T01:03:27.708Z,1028.60
2019-04-20T01:04:39.001Z,1028.62
2019-04-20T01:05:27.638Z,1028.60
2019-04-20T01:06:31.746Z,1028.67
2019-04-20T01:07:28.917Z,1028.62
2019-04-20T01:08:15.510Z,1028.63
2019-04-20T01:09:16.045Z,1028.61
2019-04-20T01:10:15.449Z,1028.61
2019-04-20T01:11:16.721Z,1028.64
2019-04-20T01:12:21.534Z,1028.63
2019-04-20T01:13:18.352Z,1028.62
2019-04-20T01:14:17.362Z,1028.60
2019-04-20T01:15:24.362Z,1028.60
2019-04-20T01:16:25.728Z,1028.61
2019-04-20T01:17:15.202Z,1028.63
2019-04-20T01:18:15.301Z,1028.66
2019-04-20T01:19:15.793Z,1028.65
2019-04-20T01:20:15.105Z,1028.65
2019-04-20T01:21:20.300Z,1028.65
2019-04-20T01:22:18.691Z,1028.64
2019-04-20T01:23:19.032Z,1028.67
2019-04-20T01:24:21.775Z,1028.63
2019-04-20T01:25:24.216Z,1028.61
2019-04-20T01:26:18.901Z,1028.65
2019-04-20T01:27:29.082Z,1028.61
2019-04-20T01:28:31.084Z,1028.62
2019-04-20T01:29:26.105Z,1028.60
2019-04-20T01:30:23.871Z,1028.59
2019-04-20T01:31:24.991Z,1028.57
2019-04-20T01:32:23.382Z,1028.56
2019-04-20T01:33:28.069Z,1028.58
2019-04-20T01:34:33.733Z,1028.57
2019-04-20T01:35:30.402Z,1028.53
2019-04-20T01:36:33.523Z,1028.56
2019-04-20T01:37:28.456Z,1028.59
2019-04-20T01:38:30.585Z,1028.56
2019-04-20T01:39:23.715Z,1028.57
2019-04-20T01:40:14.862Z,1028.57
2019-04-20T01:41:14.431Z,1028.58
2019-04-20T01:42:15.114Z,1028.56
2019-04-20T01:43:14.359Z,1028.56
2019-04-20T01:44:18.942Z,1028.56
2019-04-20T01:45:21.454Z,1028.55
2019-04-20T01:46:18.778Z,1028.57
2019-04-20T01:47:15.051Z,1028.55
2019-04-20T01:48:20.553Z,1028.53
2019-04-20T01:49:20.201Z,1028.55
2019-04-20T01:50:20.991Z,1028.54
2019-04-20T01:51:22.452Z,1028.53
2019-04-20T01:52:21.932Z,1028.55
2019-04-20T01:53:23.612Z,1028.55
2019-04-20T01:54:27.601Z,1028.54
2019-04-20T01:55:27.857Z,1028.56
2019-04-20T01:56:27.486Z,1028.51
2019-04-20T01:57:21.957Z,1028.49
2019-04-20T01:58:36.383Z,1028.52
2019-04-20T01:59:25.296Z,1028.54
2019-04-20T02:00:21.107Z,1028.50
2019-04-20T02:01:21.060Z,1028.51
2019-04-20T02:02:17.773Z,1028.49
2019-04-20T02:03:14.915Z,1028.45
2019-04-20T02:04:23.778Z,1028.44
2019-04-20T02:05:20.711Z,1028.45
2019-04-20T02:06:18.226Z,1028.45
2019-04-20T02:07:13.677Z,1028.44
2019-04-20T02:08:18.365Z,1028.46
2019-04-20T02:09:18.674Z,1028.44
2019-04-20T02:10:16.518Z,1028.44
2019-04-20T02:11:20.739Z,1028.43
2019-04-20T02:12:18.895Z,1028.42
2019-04-20T02:13:13.375Z,1028.42
2019-04-20T02:14:14.305Z,1028.41
2019-04-20T02:15:24.478Z,1028.44
2019-04-20T02:16:22.689Z,1028.43
2019-04-20T02:17:22.754Z,1028.38
2019-04-20T02:18:28.209Z,1028.44
2019-04-20T02:19:26.625Z,1028.48
2019-04-20T02:20:33.332Z,1028.43
2019-04-20T02:21:28.720Z,1028.44
2019-04-20T02:22:30.325Z,1028.44
2019-04-20T02:23:25.359Z,1028.44
2019-04-20T02:24:15.726Z,1028.42
2019-04-20T02:25:14.130Z,1028.40
2019-04-20T02:26:14.325Z,1028.44
2019-04-20T02:27:12.914Z,1028.42
2019-04-20T02:28:27.386Z,1028.44
2019-04-20T02:29:34.873Z,1028.42
2019-04-20T02:30:47.524Z,1028.40
2019-04-20T02:32:00.412Z,1028.41
2019-04-20T02:32:47.310Z,1028.41
2019-04-20T02:34:53.739Z,1028.39
2019-04-20T02:37:08.124Z,1028.40
2019-04-20T02:37:56.879Z,1028.40
2019-04-20T02:39:05.872Z,1028.40
2019-04-20T02:39:47.231Z,1028.43
2019-04-20T02:40:50.703Z,1028.46
2019-04-20T02:42:01.114Z,1028.45
2019-04-20T02:43:57.957Z,1028.44
2019-04-20T02:44:49.987Z,1028.49
2019-04-20T02:46:48.873Z,1028.46
2019-04-20T02:47:47.239Z,1028.47
2019-04-20T02:48:53.479Z,1028.50
2019-04-20T02:50:44.205Z,1028.47
2019-04-20T02:51:46.851Z,1028.48
2019-04-20T02:52:48.660Z,1028.50
2019-04-20T02:53:51.333Z,1028.42
2019-04-20T02:54:42.913Z,1028.50
2019-04-20T02:55:53.519Z,1028.53
2019-04-20T02:56:49.800Z,1028.49
2019-04-20T02:57:47.899Z,1028.52
2019-04-20T02:58:50.245Z,1028.53
2019-04-20T03:00:33.962Z,1028.52
2019-04-20T03:01:30.925Z,1028.53
2019-04-20T03:02:29.962Z,1028.54
2019-04-20T03:03:24.713Z,1028.47
2019-04-20T03:04:23.341Z,1028.47
2019-04-20T03:05:25.265Z,1028.46
2019-04-20T03:06:23.090Z,1028.49
2019-04-20T03:07:28.565Z,1028.46
2019-04-20T03:08:26.573Z,1028.51
2019-04-20T03:09:32.561Z,1028.52
2019-04-20T03:10:44.846Z,1028.49
2019-04-20T03:11:44.224Z,1028.51
2019-04-20T03:12:38.987Z,1028.49
2019-04-20T03:13:34.928Z,1028.49
2019-04-20T03:14:26.837Z,1028.50
2019-04-20T03:15:32.899Z,1028.50
2019-04-20T03:16:32.218Z,1028.52
2019-04-20T03:17:33.911Z,1028.48
2019-04-20T03:18:32.528Z,1028.51
2019-04-20T03:19:23.485Z,1028.49
2019-04-20T03:20:36.569Z,1028.52
2019-04-20T03:21:25.816Z,1028.52
2019-04-20T03:22:45.447Z,1028.50
2019-04-20T03:23:35.569Z,1028.52
2019-04-20T03:24:38.901Z,1028.53
2019-04-20T03:25:30.090Z,1028.49
2019-04-20T03:26:34.135Z,1028.51
2019-04-20T03:27:30.622Z,1028.51
2019-04-20T03:28:32.447Z,1028.51
2019-04-20T03:29:34.919Z,1028.48
2019-04-20T03:32:58.304Z,1028.45
2019-04-20T03:33:56.021Z,1028.46
2019-04-20T03:34:54.990Z,1028.42
2019-04-20T03:35:35.195Z,1028.42
2019-04-20T03:36:41.557Z,1028.48
2019-04-20T03:37:36.999Z,1028.44
2019-04-20T03:38:30.171Z,1028.41
2019-04-20T03:39:29.900Z,1028.40
2019-04-20T03:40:24.347Z,1028.38
2019-04-20T03:41:21.921Z,1028.39
2019-04-20T03:42:12.097Z,1028.38
2019-04-20T03:43:11.589Z,1028.43
2019-04-20T03:44:14.121Z,1028.41
2019-04-20T03:45:14.786Z,1028.42
2019-04-20T03:46:14.381Z,1028.38
2019-04-20T03:47:13.671Z,1028.38
2019-04-20T03:48:32.589Z,1028.39
2019-04-20T03:49:37.914Z,1028.39
2019-04-20T03:50:34.621Z,1028.37
2019-04-20T03:51:33.303Z,1028.42
2019-04-20T03:52:28.806Z,1028.37
2019-04-20T03:53:30.844Z,1028.39
2019-04-20T03:54:24.796Z,1028.40
2019-04-20T03:55:26.251Z,1028.37
2019-04-20T03:56:36.528Z,1028.41
2019-04-20T03:57:35.742Z,1028.43
2019-04-20T03:58:29.183Z,1028.44
2019-04-20T03:59:25.444Z,1028.44
2019-04-20T04:00:26.742Z,1028.45
2019-04-20T04:01:45.916Z,1028.44
2019-04-20T04:02:47.964Z,1028.43
2019-04-20T04:03:39.132Z,1028.42
2019-04-20T04:05:27.885Z,1028.45
2019-04-20T04:06:17.848Z,1028.43
2019-04-20T04:07:19.565Z,1028.45
2019-04-20T04:08:19.189Z,1028.45
2019-04-20T04:09:21.425Z,1028.46
2019-04-20T04:10:20.738Z,1028.41
2019-04-20T04:11:30.470Z,1028.46
2019-04-20T04:12:21.535Z,1028.44
2019-04-20T04:13:09.762Z,1028.44
2019-04-20T04:14:09.445Z,1028.47
2019-04-20T04:15:10.565Z,1028.47
2019-04-20T04:16:13.071Z,1028.45
2019-04-20T04:17:14.170Z,1028.45
2019-04-20T04:18:15.658Z,1028.50
2019-04-20T04:19:18.976Z,1028.52
2019-04-20T04:20:13.421Z,1028.49
2019-04-20T04:21:16.142Z,1028.47
2019-04-20T04:22:21.100Z,1028.49
2019-04-20T04:23:22.174Z,1028.47
2019-04-20T04:24:22.637Z,1028.44
2019-04-20T04:25:22.192Z,1028.47
2019-04-20T04:26:27.466Z,1028.46
2019-04-20T04:27:28.477Z,1028.43
2019-04-20T04:28:27.631Z,1028.49
2019-04-20T04:29:30.106Z,1028.50
2019-04-20T04:30:21.877Z,1028.49
2019-04-20T04:31:25.956Z,1028.49
2019-04-20T04:32:48.262Z,1028.50
2019-04-20T04:33:45.746Z,1028.48
2019-04-20T04:34:31.047Z,1028.53
2019-04-20T04:35:20.079Z,1028.46
2019-04-20T04:36:22.191Z,1028.49
2019-04-20T04:37:27.209Z,1028.53
2019-04-20T04:38:32.719Z,1028.54
2019-04-20T04:39:31.020Z,1028.56
2019-04-20T04:40:31.707Z,1028.56
2019-04-20T04:41:26.571Z,1028.53
2019-04-20T04:42:32.096Z,1028.54
2019-04-20T04:43:26.776Z,1028.51
2019-04-20T04:44:19.250Z,1028.51
2019-04-20T04:45:13.742Z,1028.54
2019-04-20T04:46:08.219Z,1028.55
2019-04-20T04:47:10.437Z,1028.50
2019-04-20T04:48:14.676Z,1028.53
2019-04-20T04:49:18.042Z,1028.56
2019-04-20T04:50:14.726Z,1028.55
2019-04-20T04:51:15.790Z,1028.56
2019-04-20T04:52:13.454Z,1028.59
2019-04-20T04:53:19.626Z,1028.59
2019-04-20T04:54:16.599Z,1028.55
2019-04-20T04:55:20.010Z,1028.56
2019-04-20T04:56:14.135Z,1028.55
2019-04-20T04:57:07.852Z,1028.58
2019-04-20T04:58:08.564Z,1028.65
2019-04-20T04:59:08.645Z,1028.62
2019-04-20T05:00:10.270Z,1028.60
2019-04-20T05:01:13.879Z,1028.59
2019-04-20T05:02:07.743Z,1028.60
2019-04-20T05:03:23.307Z,1028.60
2019-04-20T05:04:25.091Z,1028.60
2019-04-20T05:05:32.378Z,1028.55
2019-04-20T05:06:24.052Z,1028.59
2019-04-20T05:07:20.126Z,1028.59
2019-04-20T05:08:15.467Z,1028.56
2019-04-20T05:09:10.621Z,1028.57
2019-04-20T05:10:07.711Z,1028.58
2019-04-20T05:11:07.395Z,1028.56
2019-04-20T05:12:15.220Z,1028.55
2019-04-20T05:13:07.328Z,1028.58
2019-04-20T05:14:12.151Z,1028.59
2019-04-20T05:15:14.291Z,1028.58
2019-04-20T05:16:19.270Z,1028.59
2019-04-20T05:17:20.763Z,1028.59
2019-04-20T05:18:34.440Z,1028.60
2019-04-20T05:19:33.874Z,1028.59
2019-04-20T05:20:23.001Z,1028.57
2019-04-20T05:21:25.374Z,1028.56
2019-04-20T05:22:27.605Z,1028.57
2019-04-20T05:23:20.530Z,1028.60
2019-04-20T05:24:22.951Z,1028.56
2019-04-20T05:25:25.135Z,1028.61
2019-04-20T05:26:26.943Z,1028.64
2019-04-20T05:27:27.490Z,1028.64
2019-04-20T05:28:20.262Z,1028.64
2019-04-20T05:29:14.515Z,1028.64
2019-04-20T05:30:07.809Z,1028.63
2019-04-20T05:31:09.598Z,1028.66
2019-04-20T05:32:13.043Z,1028.68
2019-04-20T05:33:11.933Z,1028.65
2019-04-20T05:34:25.596Z,1028.64
2019-04-20T05:35:26.940Z,1028.61
2019-04-20T05:36:23.528Z,1028.66
2019-04-20T05:37:37.130Z,1028.59
2019-04-20T05:38:33.956Z,1028.63
2019-04-20T05:40:26.192Z,1028.64
2019-04-20T05:41:21.874Z,1028.66
2019-04-20T05:42:30.205Z,1028.67
2019-04-20T05:43:22.885Z,1028.68
2019-04-20T05:44:24.825Z,1028.68
2019-04-20T05:45:22.363Z,1028.71
2019-04-20T05:46:26.661Z,1028.68
2019-04-20T05:47:26.986Z,1028.68
2019-04-20T05:48:20.568Z,1028.70
2019-04-20T05:49:25.848Z,1028.70
2019-04-20T05:50:29.046Z,1028.71
2019-04-20T05:51:33.440Z,1028.71
2019-04-20T05:52:40.222Z,1028.71
2019-04-20T05:53:30.489Z,1028.69
2019-04-20T05:54:26.952Z,1028.71
2019-04-20T05:55:27.388Z,1028.70
2019-04-20T05:56:34.418Z,1028.71
2019-04-20T05:57:31.951Z,1028.68
2019-04-20T05:58:29.429Z,1028.72
2019-04-20T05:59:27.059Z,1028.72
2019-04-20T06:00:26.528Z,1028.68
2019-04-20T06:01:25.957Z,1028.68
2019-04-20T06:02:27.687Z,1028.75
2019-04-20T06:03:29.007Z,1028.75
2019-04-20T06:04:42.566Z,1028.72
2019-04-20T06:05:28.743Z,1028.74
2019-04-20T06:06:27.427Z,1028.75
2019-04-20T06:09:30.794Z,1028.80
2019-04-20T06:10:27.419Z,1028.75
2019-04-20T06:11:26.289Z,1028.77
2019-04-20T06:12:25.476Z,1028.74
2019-04-20T06:13:18.667Z,1028.72
2019-04-20T06:14:13.469Z,1028.74
2019-04-20T06:15:19.894Z,1028.75
2019-04-20T06:16:25.323Z,1028.74
2019-04-20T06:17:29.571Z,1028.72
2019-04-20T06:18:23.116Z,1028.72
2019-04-20T06:20:27.206Z,1028.70
2019-04-20T06:21:32.282Z,1028.68
2019-04-20T06:22:30.824Z,1028.70
2019-04-20T06:23:33.814Z,1028.70
2019-04-20T06:24:33.276Z,1028.72
2019-04-20T06:26:36.933Z,1028.72
2019-04-20T06:27:30.250Z,1028.69
2019-04-20T06:28:22.002Z,1028.71
2019-04-20T06:29:18.516Z,1028.72
2019-04-20T06:30:19.107Z,1028.72
2019-04-20T06:31:30.028Z,1028.70
2019-04-20T06:32:28.882Z,1028.68
2019-04-20T06:33:50.243Z,1028.65
2019-04-20T06:34:39.148Z,1028.67
2019-04-20T06:35:47.912Z,1028.68
2019-04-20T06:36:32.181Z,1028.69
2019-04-20T06:37:24.426Z,1028.71
2019-04-20T06:38:44.261Z,1028.72
2019-04-20T06:40:47.331Z,1028.74
2019-04-20T06:41:31.794Z,1028.71
2019-04-20T06:42:23.688Z,1028.72
2019-04-20T06:43:25.589Z,1028.74
2019-04-20T06:46:29.201Z,1028.73
2019-04-20T06:47:24.422Z,1028.75
2019-04-20T06:48:30.062Z,1028.75
2019-04-20T06:49:28.907Z,1028.70
2019-04-20T06:50:24.535Z,1028.71
2019-04-20T06:51:31.038Z,1028.74
2019-04-20T06:52:27.628Z,1028.73
2019-04-20T06:53:32.556Z,1028.73
2019-04-20T06:54:17.399Z,1028.71
2019-04-20T06:55:19.719Z,1028.71
2019-04-20T06:56:24.786Z,1028.70
2019-04-20T06:57:25.654Z,1028.72
2019-04-20T06:58:38.958Z,1028.70
2019-04-20T07:00:20.554Z,1028.73
2019-04-20T07:01:25.202Z,1028.70
2019-04-20T07:02:29.930Z,1028.73
2019-04-20T07:03:36.093Z,1028.73
2019-04-20T07:04:38.885Z,1028.71
2019-04-20T07:05:39.105Z,1028.70
2019-04-20T07:06:48.034Z,1028.70
2019-04-20T07:07:24.028Z,1028.67
2019-04-20T07:08:45.203Z,1028.67
2019-04-20T07:09:35.275Z,1028.65
2019-04-20T07:10:30.222Z,1028.66
2019-04-20T07:11:25.046Z,1028.64
2019-04-20T07:12:24.083Z,1028.66
2019-04-20T07:13:18.855Z,1028.66
2019-04-20T07:14:11.105Z,1028.67
2019-04-20T07:15:22.857Z,1028.66
2019-04-20T07:16:21.567Z,1028.66
2019-04-20T07:17:33.174Z,1028.66
2019-04-20T07:18:31.308Z,1028.68
2019-04-20T07:19:25.924Z,1028.64
2019-04-20T07:20:19.339Z,1028.67
2019-04-20T07:21:39.477Z,1028.68
2019-04-20T07:22:31.387Z,1028.71
2019-04-20T07:23:26.452Z,1028.69
2019-04-20T07:24:24.839Z,1028.70
2019-04-20T07:25:29.316Z,1028.68
2019-04-20T07:26:29.767Z,1028.69
2019-04-20T07:27:22.949Z,1028.70
2019-04-20T07:28:29.277Z,1028.68
2019-04-20T07:29:31.520Z,1028.71
2019-04-20T07:30:22.903Z,1028.71
2019-04-20T07:31:24.652Z,1028.70
2019-04-20T07:32:17.879Z,1028.71
2019-04-20T07:33:28.504Z,1028.72
2019-04-20T07:34:22.953Z,1028.75
2019-04-20T07:35:25.053Z,1028.77
2019-04-20T07:36:28.368Z,1028.74
2019-04-20T07:37:51.444Z,1028.71
2019-04-20T07:38:32.925Z,1028.77
2019-04-20T07:39:28.058Z,1028.74
2019-04-20T07:40:33.882Z,1028.76
2019-04-20T07:41:35.767Z,1028.77
2019-04-20T07:42:29.123Z,1028.77
2019-04-20T07:43:21.478Z,1028.76
2019-04-20T07:44:28.132Z,1028.81
2019-04-20T07:45:28.292Z,1028.75
2019-04-20T07:46:34.862Z,1028.78
2019-04-20T07:47:33.073Z,1028.77
2019-04-20T07:48:23.539Z,1028.78
2019-04-20T07:49:24.684Z,1028.77
2019-04-20T07:50:18.658Z,1028.73
2019-04-20T07:51:12.488Z,1028.82
2019-04-20T07:52:02.300Z,1028.77
2019-04-20T07:53:20.476Z,1028.78
2019-04-20T07:54:33.163Z,1028.78
2019-04-20T07:55:44.575Z,1028.85
2019-04-20T07:56:23.599Z,1028.80
2019-04-20T07:57:21.564Z,1028.83
2019-04-20T07:58:15.634Z,1028.83
2019-04-20T07:59:14.362Z,1028.84
2019-04-20T08:00:26.109Z,1028.85
2019-04-20T08:01:30.206Z,1028.87
2019-04-20T08:02:33.409Z,1028.82
2019-04-20T08:03:28.393Z,1028.81
2019-04-20T08:04:22.790Z,1028.80
2019-04-20T08:05:18.219Z,1028.80
2019-04-20T08:06:10.039Z,1028.77
2019-04-20T08:07:05.769Z,1028.80
2019-04-20T08:08:20.956Z,1028.82
2019-04-20T08:09:17.171Z,1028.78
2019-04-20T08:10:06.206Z,1028.79
2019-04-20T08:11:25.651Z,1028.79
2019-04-20T08:12:29.299Z,1028.81
2019-04-20T08:14:27.265Z,1028.76
2019-04-20T08:15:27.134Z,1028.79
2019-04-20T08:16:35.574Z,1028.76
2019-04-20T08:17:46.472Z,1028.74
2019-04-20T08:18:27.965Z,1028.77
2019-04-20T08:19:23.138Z,1028.76
2019-04-20T08:20:19.976Z,1028.76
2019-04-20T08:21:25.724Z,1028.76
2019-04-20T08:22:27.082Z,1028.77
2019-04-20T08:23:23.211Z,1028.77
2019-04-20T08:24:17.110Z,1028.79
2019-04-20T08:25:14.199Z,1028.76
2019-04-20T08:26:11.330Z,1028.78
2019-04-20T08:27:06.539Z,1028.79
2019-04-20T08:28:01.576Z,1028.77
2019-04-20T08:29:09.197Z,1028.77
2019-04-20T08:30:20.643Z,1028.77
2019-04-20T08:31:17.821Z,1028.81
2019-04-20T08:32:20.202Z,1028.81
2019-04-20T08:33:17.810Z,1028.80
2019-04-20T08:34:29.935Z,1028.81
2019-04-20T08:35:25.959Z,1028.80
2019-04-20T08:36:23.098Z,1028.78
2019-04-20T08:37:22.287Z,1028.80
2019-04-20T08:38:50.327Z,1028.75
2019-04-20T08:39:42.410Z,1028.78
2019-04-20T08:40:22.335Z,1028.77
2019-04-20T08:41:16.907Z,1028.74
2019-04-20T08:42:22.163Z,1028.75
2019-04-20T08:43:39.486Z,1028.74
2019-04-20T08:44:42.847Z,1028.77
2019-04-20T08:45:23.949Z,1028.77
2019-04-20T08:46:21.525Z,1028.74
2019-04-20T08:47:27.369Z,1028.76
2019-04-20T08:48:26.305Z,1028.71
2019-04-20T08:49:27.687Z,1028.73
2019-04-20T08:50:22.268Z,1028.73
2019-04-20T08:51:22.643Z,1028.72
2019-04-20T08:52:41.419Z,1028.64
2019-04-20T08:53:36.954Z,1028.66
2019-04-20T08:54:18.082Z,1028.63
2019-04-20T08:55:19.763Z,1028.70
2019-04-20T08:56:14.294Z,1028.66
2019-04-20T08:57:03.199Z,1028.68
2019-04-20T08:58:00.447Z,1028.64
2019-04-20T08:59:01.849Z,1028.63
2019-04-20T09:00:03.103Z,1028.65
2019-04-20T09:01:04.837Z,1028.65
2019-04-20T09:02:05.135Z,1028.64
2019-04-20T09:03:09.320Z,1028.62
2019-04-20T09:04:11.261Z,1028.60
2019-04-20T09:05:06.687Z,1028.62
2019-04-20T09:06:07.362Z,1028.58
2019-04-20T09:07:08.363Z,1028.56
2019-04-20T09:08:09.317Z,1028.57
2019-04-20T09:09:33.248Z,1028.55
2019-04-20T09:10:25.380Z,1028.59
2019-04-20T09:12:16.730Z,1028.56
2019-04-20T09:13:12.082Z,1028.55
2019-04-20T09:14:03.517Z,1028.54
2019-04-20T09:14:59.935Z,1028.58
2019-04-20T09:16:00.048Z,1028.55
2019-04-20T09:17:05.895Z,1028.52
2019-04-20T09:18:03.774Z,1028.53
2019-04-20T09:19:07.014Z,1028.51
2019-04-20T09:20:07.117Z,1028.48
2019-04-20T09:21:06.793Z,1028.51
2019-04-20T09:22:12.196Z,1028.54
2019-04-20T09:23:16.645Z,1028.51
2019-04-20T09:24:19.923Z,1028.52
2019-04-20T09:25:27.883Z,1028.48
2019-04-20T09:26:16.298Z,1028.48
2019-04-20T09:27:15.873Z,1028.51
2019-04-20T09:28:14.303Z,1028.45
2019-04-20T09:29:12.779Z,1028.46
2019-04-20T09:30:16.059Z,1028.49
2019-04-20T09:31:15.203Z,1028.51
2019-04-20T09:32:20.915Z,1028.46
2019-04-20T09:33:14.633Z,1028.46
2019-04-20T09:34:20.283Z,1028.43
2019-04-20T09:35:19.387Z,1028.42
2019-04-20T09:36:15.305Z,1028.54
2019-04-20T09:37:21.383Z,1028.42
2019-04-20T09:38:15.503Z,1028.42
2019-04-20T09:39:14.116Z,1028.39
2019-04-20T09:40:14.471Z,1028.40
2019-04-20T09:41:18.500Z,1028.36
2019-04-20T09:42:01.204Z,1028.33
2019-04-20T09:43:00.222Z,1028.32
2019-04-20T09:44:00.370Z,1028.34
2019-04-20T09:45:01.438Z,1028.30
2019-04-20T09:46:03.666Z,1028.26
2019-04-20T09:47:01.361Z,1028.28
2019-04-20T09:48:00.587Z,1028.29
2019-04-20T09:49:07.820Z,1028.25
2019-04-20T09:50:16.842Z,1028.23
2019-04-20T09:51:21.901Z,1028.24
2019-04-20T09:52:14.565Z,1028.19
2019-04-20T09:53:17.436Z,1028.20
2019-04-20T09:54:18.905Z,1028.15
2019-04-20T09:55:10.326Z,1028.20
2019-04-20T09:56:16.880Z,1028.19
2019-04-20T09:57:22.624Z,1028.18
2019-04-20T09:58:12.638Z,1028.18
2019-04-20T09:59:16.609Z,1028.21
2019-04-20T10:00:17.097Z,1028.17
2019-04-20T10:01:13.654Z,1028.16
2019-04-20T10:02:06.602Z,1028.12
2019-04-20T10:02:58.678Z,1028.12
2019-04-20T10:03:59.368Z,1028.13
2019-04-20T10:04:59.732Z,1028.12
2019-04-20T10:05:59.320Z,1028.14
2019-04-20T10:07:00.022Z,1028.15
2019-04-20T10:08:04.329Z,1028.14
2019-04-20T10:09:01.919Z,1028.11
2019-04-20T10:09:59.811Z,1028.08
2019-04-20T10:10:59.414Z,1028.03
2019-04-20T10:11:59.675Z,1028.05
2019-04-20T10:13:00.517Z,1028.04
2019-04-20T10:13:59.403Z,1028.09
2019-04-20T10:15:04.189Z,1028.08
2019-04-20T10:15:59.455Z,1028.13
2019-04-20T10:16:58.349Z,1028.11
2019-04-20T10:17:59.477Z,1028.05
2019-04-20T10:18:58.788Z,1028.06
2019-04-20T10:20:02.568Z,1028.03
2019-04-20T10:20:58.203Z,1028.01
2019-04-20T10:21:58.183Z,1027.98
2019-04-20T10:22:58.482Z,1027.99
2019-04-20T10:23:58.924Z,1027.95
2019-04-20T10:24:58.131Z,1027.93
2019-04-20T10:25:58.564Z,1027.95
2019-04-20T10:26:58.787Z,1027.96
2019-04-20T10:27:58.037Z,1027.97
2019-04-20T10:28:59.183Z,1027.94
2019-04-20T10:30:01.088Z,1027.93
2019-04-20T10:30:58.956Z,1027.94
2019-04-20T10:32:00.525Z,1027.96
2019-04-20T10:32:57.910Z,1027.99
2019-04-20T10:33:57.942Z,1027.99
2019-04-20T10:34:58.916Z,1027.99
2019-04-20T10:35:59.466Z,1027.93
2019-04-20T10:36:57.812Z,1027.93
2019-04-20T10:37:57.789Z,1027.96
2019-04-20T10:38:58.230Z,1027.93
2019-04-20T10:39:58.511Z,1027.97
2019-04-20T10:41:08.201Z,1027.92
2019-04-20T10:42:02.141Z,1027.91
2019-04-20T10:42:59.816Z,1027.89
2019-04-20T10:43:58.676Z,1027.89
2019-04-20T10:44:59.408Z,1027.91
2019-04-20T10:45:57.594Z,1027.85
2019-04-20T10:46:58.688Z,1027.91
2019-04-20T10:47:57.542Z,1027.89
2019-04-20T10:49:03.693Z,1027.84
2019-04-20T10:49:58.808Z,1027.86
2019-04-20T10:50:58.852Z,1027.88
2019-04-20T10:51:57.827Z,1027.85
2019-04-20T10:52:57.432Z,1027.85
2019-04-20T10:53:58.297Z,1027.84
2019-04-20T10:54:58.526Z,1027.87
2019-04-20T10:55:57.744Z,1027.89
2019-04-20T10:56:57.464Z,1027.89
2019-04-20T10:57:57.644Z,1027.88
2019-04-20T10:58:57.977Z,1027.85
2019-04-20T10:59:57.553Z,1027.81
2019-04-20T11:00:57.675Z,1027.82
2019-04-20T11:01:58.110Z,1027.79
2019-04-20T11:02:57.487Z,1027.76
2019-04-20T11:03:57.154Z,1027.76
2019-04-20T11:04:57.148Z,1027.76
2019-04-20T11:05:58.434Z,1027.75
2019-04-20T11:06:57.083Z,1027.73
2019-04-20T11:07:57.052Z,1027.72
2019-04-20T11:08:58.425Z,1027.74
2019-04-20T11:10:10.635Z,1027.77
2019-04-20T11:11:07.140Z,1027.79
2019-04-20T11:11:56.958Z,1027.82
2019-04-20T11:12:57.093Z,1027.76
2019-04-20T11:13:59.849Z,1027.76
2019-04-20T11:14:56.929Z,1027.81
2019-04-20T11:15:56.852Z,1027.78
2019-04-20T11:16:58.309Z,1027.75
2019-04-20T11:17:57.501Z,1027.71
2019-04-20T11:18:57.742Z,1027.73
2019-04-20T11:19:57.192Z,1027.72
2019-04-20T11:20:57.420Z,1027.70
2019-04-20T11:21:56.706Z,1027.77
2019-04-20T11:22:58.027Z,1027.74
2019-04-20T11:23:56.664Z,1027.74
2019-04-20T11:24:56.656Z,1027.75
2019-04-20T11:25:57.973Z,1027.71
2019-04-20T11:26:56.582Z,1027.78
2019-04-20T11:27:56.569Z,1027.76
2019-04-20T11:28:57.895Z,1027.69
2019-04-20T11:29:56.535Z,1027.78
2019-04-20T11:30:56.498Z,1027.73
2019-04-20T11:31:57.743Z,1027.68
2019-04-20T11:32:56.438Z,1027.69
2019-04-20T11:33:56.426Z,1027.67
2019-04-20T11:34:56.651Z,1027.65
2019-04-20T11:35:57.097Z,1027.64
2019-04-20T11:36:57.239Z,1027.61
2019-04-20T11:37:57.465Z,1027.63
2019-04-20T11:38:56.709Z,1027.66
2019-04-20T11:39:57.049Z,1027.57
2019-04-20T11:41:08.358Z,1027.61
2019-04-20T11:41:56.293Z,1027.66
2019-04-20T11:42:57.433Z,1027.55
2019-04-20T11:43:56.179Z,1027.55
2019-04-20T11:44:57.108Z,1027.55
2019-04-20T11:45:56.515Z,1027.48
2019-04-20T11:46:56.655Z,1027.50
2019-04-20T11:47:56.087Z,1027.44
2019-04-20T11:48:57.297Z,1027.45
2019-04-20T11:49:57.368Z,1027.46
2019-04-20T11:50:56.037Z,1027.46
2019-04-20T11:51:57.249Z,1027.42
2019-04-20T11:52:57.200Z,1027.44
2019-04-20T11:53:56.426Z,1027.42
2019-04-20T11:54:55.937Z,1027.42
2019-04-20T11:55:56.286Z,1027.42
2019-04-20T11:56:55.876Z,1027.42
2019-04-20T11:57:56.235Z,1027.44
2019-04-20T11:58:56.753Z,1027.45
2019-04-20T11:59:57.075Z,1027.43
2019-04-20T12:01:03.189Z,1027.44
2019-04-20T12:02:01.139Z,1027.44
2019-04-20T12:02:58.548Z,1027.39
2019-04-20T12:04:02.875Z,1027.38
2019-04-20T12:05:09.063Z,1027.38
2019-04-20T12:05:59.119Z,1027.40
2019-04-20T12:06:56.972Z,1027.34
2019-04-20T12:07:55.623Z,1027.33
2019-04-20T12:08:56.905Z,1027.33
2019-04-20T12:09:59.022Z,1027.33
2019-04-20T12:10:59.565Z,1027.37
2019-04-20T12:12:07.017Z,1027.33
2019-04-20T12:12:55.709Z,1027.31
2019-04-20T12:13:56.492Z,1027.31
2019-04-20T12:14:56.672Z,1027.30
2019-04-20T12:15:56.001Z,1027.30
2019-04-20T12:16:55.522Z,1027.31
2019-04-20T12:17:55.663Z,1027.32
2019-04-20T12:18:56.614Z,1027.30
2019-04-20T12:19:55.550Z,1027.29
2019-04-20T12:20:56.613Z,1027.24
2019-04-20T12:21:55.820Z,1027.21
2019-04-20T12:22:55.272Z,1027.18
2019-04-20T12:23:56.208Z,1027.19
2019-04-20T12:24:56.219Z,1027.25
2019-04-20T12:25:56.424Z,1027.19